Time;durP1;ratioP1;P1;durP2;ratioP2;P2;SDS_P1;SDS_P2;PMS_P1;PMS_P2;Temp;Humidity;BMP_temperature;BMP_pressure;BME280_temperature;BME280_humidity;BME280_pressure;Samples;Min_cycle;Max_cycle;Signal;HPM_P1;HPM_P2
2023/01/15 00:00:14;;;;;;;97.85;45.65;;;;;;;;;;6217795;23;20079;-84
2023/01/15 00:02:39;;;;;;;85.65;43.17;;;;;;;;;;6244545;23;20000;-84
2023/01/15 00:05:05;;;;;;;88.25;43.22;;;;;;;;;;6217869;23;20004;-84
2023/01/15 00:07:31;;;;;;;91.95;44.45;;;;;;;;;;6245182;23;20323;-84
2023/01/15 00:09:56;;;;;;;83.65;42.67;;;;;;;;;;6244932;23;20004;-84
2023/01/15 00:12:22;;;;;;;90.43;43.38;;;;;;;;;;6192662;23;20011;-84
2023/01/15 00:14:47;;;;;;;87.55;43.25;;;;;;;;;;6244804;23;20079;-84
2023/01/15 00:17:13;;;;;;;82.93;42.95;;;;;;;;;;6244921;23;20435;-84
2023/01/15 00:19:38;;;;;;;84.18;42.38;;;;;;;;;;6244756;23;20062;-84
2023/01/15 00:22:04;;;;;;;88.65;43.08;;;;;;;;;;6245048;23;20007;-84
2023/01/15 00:29:57;;;;;;;97.38;47.33;;;;;;;;;;6244161;23;20011;-84
2023/01/15 00:32:25;;;;;;;99.05;50.58;;;;;;;;;;6217875;23;19997;-84
2023/01/15 00:34:51;;;;;;;100.45;51.55;;;;;;;;;;6193499;23;20012;-84
2023/01/15 00:37:16;;;;;;;106.63;51.03;;;;;;;;;;6194872;23;20000;-84
2023/01/15 00:39:42;;;;;;;119.90;59.50;;;;;;;;;;6244273;23;20008;-84
2023/01/15 00:42:08;;;;;;;118.03;56.72;;;;;;;;;;6217992;23;20005;-84
2023/01/15 00:44:33;;;;;;;107.57;55.50;;;;;;;;;;6192619;23;20004;-84
2023/01/15 00:46:59;;;;;;;104.97;51.20;;;;;;;;;;6217942;23;20008;-84
2023/01/15 00:49:26;;;;;;;91.35;46.90;;;;;;;;;;6218292;23;20024;-84
2023/01/15 00:51:51;;;;;;;101.50;50.45;;;;;;;;;;6192467;23;20047;-84
2023/01/15 00:54:17;;;;;;;102.82;48.50;;;;;;;;;;6217906;23;20000;-84
2023/01/15 00:56:42;;;;;;;93.30;43.42;;;;;;;;;;6214447;23;20000;-84
2023/01/15 00:59:07;;;;;;;75.43;38.70;;;;;;;;;;6217322;23;20071;-86
2023/01/15 01:01:33;;;;;;;79.07;40.25;;;;;;;;;;6192976;23;20000;-85
2023/01/15 01:03:58;;;;;;;80.47;38.70;;;;;;;;;;6244394;23;20412;-84
2023/01/15 01:06:24;;;;;;;81.43;41.25;;;;;;;;;;6193191;23;20079;-85
2023/01/15 01:08:49;;;;;;;82.38;39.83;;;;;;;;;;6193626;23;20132;-85
2023/01/15 01:11:17;;;;;;;101.63;52.15;;;;;;;;;;6221434;23;20004;-85
2023/01/15 01:13:43;;;;;;;117.97;61.15;;;;;;;;;;6171135;23;20000;-85
2023/01/15 01:16:29;;;;;;;114.18;55.50;;;;;;;;;;6197022;23;20466;-85
2023/01/15 01:18:57;;;;;;;100.47;50.25;;;;;;;;;;6248347;23;20000;-85
2023/01/15 01:21:23;;;;;;;97.93;51.15;;;;;;;;;;6220915;23;20020;-84
2023/01/15 01:23:48;;;;;;;109.70;50.67;;;;;;;;;;6218426;23;20004;-84
2023/01/15 01:26:14;;;;;;;102.63;49.83;;;;;;;;;;6217283;23;20012;-84
2023/01/15 01:28:40;;;;;;;111.22;56.20;;;;;;;;;;6192464;23;20483;-85
2023/01/15 01:31:06;;;;;;;133.23;62.20;;;;;;;;;;6217818;23;20066;-85
2023/01/15 01:33:32;;;;;;;134.98;62.80;;;;;;;;;;6217463;23;20395;-85
2023/01/15 01:35:57;;;;;;;130.15;63.08;;;;;;;;;;6217432;23;20000;-85
2023/01/15 01:38:22;;;;;;;123.13;61.28;;;;;;;;;;6217446;23;20441;-85
2023/01/15 01:40:48;;;;;;;112.43;53.80;;;;;;;;;;6217727;23;20434;-85
2023/01/15 01:43:21;;;;;;;106.13;50.70;;;;;;;;;;6217419;23;20343;-85
2023/01/15 01:45:47;;;;;;;104.88;48.97;;;;;;;;;;6192439;23;20091;-84
2023/01/15 01:48:12;;;;;;;96.60;46.30;;;;;;;;;;6244349;23;20010;-84
2023/01/15 01:50:38;;;;;;;103.20;45.50;;;;;;;;;;6217641;23;20008;-84
2023/01/15 01:53:09;;;;;;;98.28;43.33;;;;;;;;;;6217756;23;20557;-85
2023/01/15 01:55:35;;;;;;;91.93;41.35;;;;;;;;;;6217907;23;20031;-85
2023/01/15 01:58:01;;;;;;;91.82;41.92;;;;;;;;;;6192607;23;20007;-85
2023/01/15 02:00:27;;;;;;;95.53;42.15;;;;;;;;;;6188997;23;20012;-85
2023/01/15 02:02:52;;;;;;;94.30;41.42;;;;;;;;;;6192539;23;20000;-84
2023/01/15 02:05:27;;;;;;;95.03;41.42;;;;;;;;;;6192388;23;20008;-85
2023/01/15 02:07:53;;;;;;;95.20;42.35;;;;;;;;;;6217897;23;20358;-84
2023/01/15 02:10:19;;;;;;;103.10;41.63;;;;;;;;;;6192289;23;20048;-84
2023/01/15 02:13:09;;;;;;;100.72;41.95;;;;;;;;;;6243849;23;20087;-85
2023/01/15 02:15:39;;;;;;;88.32;39.70;;;;;;;;;;6243077;23;20004;-84
2023/01/15 02:18:08;;;;;;;;;;;;;;;;;;6217809;23;20000;-85
2023/01/15 02:20:41;;;;;;;100.13;40.10;;;;;;;;;;6243906;23;19908;-84
2023/01/15 02:23:15;;;;;;;101.50;40.00;;;;;;;;;;6194382;23;20008;-84
2023/01/15 02:25:53;;;;;;;106.13;42.25;;;;;;;;;;6218747;23;20011;-84
2023/01/15 02:28:23;;;;;;;110.18;41.67;;;;;;;;;;6219000;23;20443;-85
2023/01/15 02:31:03;;;;;;;100.32;41.60;;;;;;;;;;6219364;23;20031;-85
2023/01/15 02:33:35;;;;;;;105.55;40.92;;;;;;;;;;6196659;23;20138;-85
2023/01/15 02:36:00;;;;;;;107.43;42.22;;;;;;;;;;6170100;23;20008;-84
2023/01/15 02:38:29;;;;;;;107.85;41.47;;;;;;;;;;6169148;23;20344;-84
2023/01/15 02:40:55;;;;;;;109.93;41.83;;;;;;;;;;6194049;23;20004;-85
2023/01/15 02:43:21;;;;;;;110.82;41.35;;;;;;;;;;6169086;23;20004;-84
2023/01/15 02:45:50;;;;;;;106.40;40.38;;;;;;;;;;6169082;23;20355;-85
2023/01/15 02:48:16;;;;;;;107.97;41.55;;;;;;;;;;6194958;23;20089;-85
2023/01/15 02:50:51;;;;;;;105.22;39.83;;;;;;;;;;6194215;23;20007;-84
2023/01/15 02:53:19;;;;;;;102.80;40.47;;;;;;;;;;6219109;23;20000;-84
2023/01/15 02:55:46;;;;;;;99.20;41.40;;;;;;;;;;6218982;23;20024;-84
2023/01/15 02:58:15;;;;;;;120.68;43.72;;;;;;;;;;6195669;23;20076;-85
2023/01/15 03:00:42;;;;;;;114.55;42.15;;;;;;;;;;6195225;23;20485;-85
2023/01/15 03:03:18;;;;;;;111.15;42.60;;;;;;;;;;6218316;23;20007;-84
2023/01/15 03:06:11;;;;;;;110.25;42.47;;;;;;;;;;6248723;23;20008;-84
2023/01/15 03:08:37;;;;;;;111.95;41.70;;;;;;;;;;6247902;23;20061;-85
2023/01/15 03:11:07;;;;;;;121.95;44.35;;;;;;;;;;6221455;23;20363;-85
2023/01/15 03:14:08;;;;;;;126.13;46.08;;;;;;;;;;6196449;23;20004;-84
2023/01/15 03:16:46;;;;;;;121.78;45.55;;;;;;;;;;6184688;23;20004;-85
2023/01/15 03:19:27;;;;;;;140.90;48.00;;;;;;;;;;6194336;23;20033;-84
2023/01/15 03:21:54;;;;;;;;;;;;;;;;;;6219017;23;20150;-85
2023/01/15 03:24:44;;;;;;;135.38;46.95;;;;;;;;;;6218512;23;19935;-85
2023/01/15 03:27:09;;;;;;;144.27;49.07;;;;;;;;;;6221967;23;20370;-85
2023/01/15 03:29:41;;;;;;;154.48;51.80;;;;;;;;;;6193803;23;20231;-85
2023/01/15 03:32:06;;;;;;;145.88;50.42;;;;;;;;;;6218258;23;20015;-84
2023/01/15 03:35:03;;;;;;;136.45;50.67;;;;;;;;;;6193107;23;20008;-84
2023/01/15 03:37:28;;;;;;;134.90;48.55;;;;;;;;;;6188121;23;20028;-85
2023/01/15 03:39:54;;;;;;;147.00;53.00;;;;;;;;;;6184142;23;20082;-84
2023/01/15 03:42:34;;;;;;;148.02;57.05;;;;;;;;;;6245516;22;20004;-85
2023/01/15 03:45:05;;;;;;;;;;;;;;;;;;6245766;23;20000;-84
2023/01/15 03:47:43;;;;;;;119.40;47.30;;;;;;;;;;6243521;23;19907;-84
2023/01/15 03:50:32;;;;;;;137.68;50.33;;;;;;;;;;6245263;23;19997;-85
2023/01/15 03:53:06;;;;;;;123.57;48.53;;;;;;;;;;6229555;23;20066;-84
2023/01/15 03:56:16;;;;;;;128.15;48.67;;;;;;;;;;6243755;23;20005;-84
2023/01/15 03:58:48;;;;;;;122.90;47.70;;;;;;;;;;6238829;23;20032;-84
2023/01/15 04:01:15;;;;;;;118.88;46.42;;;;;;;;;;6218723;23;20046;-85
2023/01/15 04:03:40;;;;;;;122.55;49.85;;;;;;;;;;6215440;23;20047;-84
2023/01/15 04:06:06;;;;;;;116.85;48.47;;;;;;;;;;6218044;23;20046;-85
2023/01/15 04:08:33;;;;;;;119.25;51.20;;;;;;;;;;6243357;23;20028;-84
2023/01/15 04:11:00;;;;;;;123.32;52.78;;;;;;;;;;6219122;23;20012;-85
2023/01/15 04:13:25;;;;;;;115.28;52.00;;;;;;;;;;6218911;23;20001;-84
2023/01/15 04:15:51;;;;;;;128.25;52.40;;;;;;;;;;6247083;22;20004;-84
2023/01/15 04:18:16;;;;;;;113.68;46.03;;;;;;;;;;6259277;23;20000;-84
2023/01/15 04:20:43;;;;;;;111.40;46.47;;;;;;;;;;6237072;23;20015;-83
2023/01/15 04:23:08;;;;;;;116.00;46.45;;;;;;;;;;6253263;23;20010;-84
2023/01/15 04:25:33;;;;;;;116.32;48.05;;;;;;;;;;6218720;23;20012;-84
2023/01/15 04:27:59;;;;;;;125.75;49.55;;;;;;;;;;6243369;23;20086;-85
2023/01/15 04:30:24;;;;;;;114.15;50.10;;;;;;;;;;6218216;23;20047;-84
2023/01/15 04:32:50;;;;;;;124.53;52.13;;;;;;;;;;6244841;22;20050;-84
2023/01/15 04:35:16;;;;;;;142.90;54.40;;;;;;;;;;6217892;23;20000;-84
2023/01/15 04:37:41;;;;;;;133.52;55.25;;;;;;;;;;6245007;22;20000;-84
2023/01/15 04:40:07;;;;;;;146.38;64.45;;;;;;;;;;6245091;23;20019;-84
2023/01/15 04:45:17;;;;;;;131.57;54.55;;;;;;;;;;6245564;23;20461;-84
2023/01/15 04:47:42;;;;;;;133.02;53.55;;;;;;;;;;6221620;23;20083;-84
2023/01/15 04:50:08;;;;;;;130.55;51.78;;;;;;;;;;6250243;22;20463;-84
2023/01/15 04:52:34;;;;;;;125.97;50.67;;;;;;;;;;6272285;22;19993;-84
2023/01/15 04:54:59;;;;;;;128.90;51.28;;;;;;;;;;6272813;23;20016;-82
2023/01/15 04:57:25;;;;;;;127.38;51.88;;;;;;;;;;6269586;23;20004;-83
2023/01/15 04:59:50;;;;;;;128.40;56.15;;;;;;;;;;6269927;23;19999;-84
2023/01/15 05:02:16;;;;;;;136.60;58.20;;;;;;;;;;6269505;23;20011;-83
2023/01/15 05:04:41;;;;;;;121.05;53.20;;;;;;;;;;6246456;23;20000;-84
2023/01/15 05:07:07;;;;;;;131.98;54.00;;;;;;;;;;6239868;23;20008;-83
2023/01/15 05:09:32;;;;;;;128.38;53.03;;;;;;;;;;6243355;23;20046;-83
2023/01/15 05:11:57;;;;;;;130.90;56.45;;;;;;;;;;6217798;23;20074;-83
2023/01/15 05:14:23;;;;;;;134.40;55.33;;;;;;;;;;6244659;23;20020;-84
2023/01/15 05:16:48;;;;;;;131.52;55.85;;;;;;;;;;6244481;22;20004;-83
2023/01/15 05:19:15;;;;;;;131.40;56.45;;;;;;;;;;6244351;22;20032;-83
2023/01/15 05:21:41;;;;;;;135.10;55.67;;;;;;;;;;6192284;23;20037;-83
2023/01/15 05:24:13;;;;;;;135.05;55.20;;;;;;;;;;6242673;23;20446;-84
2023/01/15 05:26:39;;;;;;;132.40;56.65;;;;;;;;;;6243152;23;20355;-84
2023/01/15 05:29:04;;;;;;;123.57;56.83;;;;;;;;;;6244424;22;20035;-84
2023/01/15 05:31:30;;;;;;;128.85;54.85;;;;;;;;;;6244064;22;20428;-84
2023/01/15 05:33:56;;;;;;;123.20;50.95;;;;;;;;;;6217212;23;20011;-83
2023/01/15 05:36:23;;;;;;;122.65;49.33;;;;;;;;;;6217759;23;20011;-84
2023/01/15 05:38:50;;;;;;;118.28;46.90;;;;;;;;;;6243224;23;20023;-84
2023/01/15 05:44:11;;;;;;;107.97;45.92;;;;;;;;;;6242860;23;20546;-84
2023/01/15 05:46:38;;;;;;;115.28;45.33;;;;;;;;;;6244410;22;20008;-84
2023/01/15 05:49:06;;;;;;;107.05;45.42;;;;;;;;;;6217691;23;20000;-84
2023/01/15 05:51:32;;;;;;;105.80;40.80;;;;;;;;;;6242323;23;20000;-84
2023/01/15 05:53:58;;;;;;;110.55;43.75;;;;;;;;;;6192779;23;20007;-84
2023/01/15 05:56:23;;;;;;;100.22;39.55;;;;;;;;;;6242954;23;20000;-84
2023/01/15 05:58:49;;;;;;;101.70;40.35;;;;;;;;;;6219532;23;20000;-84
2023/01/15 06:01:14;;;;;;;103.82;39.25;;;;;;;;;;6219849;23;20034;-84
2023/01/15 06:03:40;;;;;;;105.20;40.15;;;;;;;;;;6244112;23;20000;-84
2023/01/15 06:06:06;;;;;;;110.95;39.78;;;;;;;;;;6245781;22;20008;-83
2023/01/15 06:08:31;;;;;;;101.88;38.63;;;;;;;;;;6243378;23;20004;-84
2023/01/15 06:10:57;;;;;;;123.18;49.17;;;;;;;;;;6250468;23;19996;-83
2023/01/15 06:13:22;;;;;;;123.32;42.42;;;;;;;;;;6254787;22;20340;-84
2023/01/15 06:15:47;;;;;;;122.53;38.92;;;;;;;;;;6251867;23;20042;-84
2023/01/15 06:18:13;;;;;;;115.10;39.65;;;;;;;;;;6250719;23;20004;-83
2023/01/15 06:20:40;;;;;;;105.25;38.22;;;;;;;;;;6246643;23;20000;-83
2023/01/15 06:23:06;;;;;;;109.28;38.63;;;;;;;;;;6219564;23;20058;-84
2023/01/15 06:25:34;;;;;;;100.40;37.92;;;;;;;;;;6219187;23;20008;-83
2023/01/15 06:27:59;;;;;;;108.10;38.08;;;;;;;;;;6244535;23;20004;-83
2023/01/15 06:30:25;;;;;;;143.13;42.15;;;;;;;;;;6244228;23;20130;-84
2023/01/15 06:32:50;;;;;;;145.52;45.65;;;;;;;;;;6243539;23;20023;-83
2023/01/15 06:35:16;;;;;;;135.70;46.08;;;;;;;;;;6218800;23;20008;-82
2023/01/15 06:37:41;;;;;;;128.48;43.42;;;;;;;;;;6243777;23;20016;-84
2023/01/15 06:40:07;;;;;;;199.73;37.40;;;;;;;;;;6244028;23;20020;-84
2023/01/15 06:48:01;;;;;;;102.00;36.25;;;;;;;;;;6245012;23;20533;-83
2023/01/15 06:50:26;;;;;;;109.15;37.28;;;;;;;;;;6243859;23;20015;-83
2023/01/15 06:52:51;;;;;;;115.95;42.17;;;;;;;;;;6245507;22;20001;-83
2023/01/15 06:55:17;;;;;;;137.40;43.47;;;;;;;;;;6245281;23;20011;-84
2023/01/15 06:57:43;;;;;;;136.77;39.00;;;;;;;;;;6244830;23;20043;-84
2023/01/15 07:00:09;;;;;;;122.75;37.63;;;;;;;;;;6220168;23;20038;-84
2023/01/15 07:02:35;;;;;;;141.18;41.53;;;;;;;;;;6247945;22;20721;-84
2023/01/15 07:05:00;;;;;;;122.72;38.72;;;;;;;;;;6246742;23;20008;-83
2023/01/15 07:07:26;;;;;;;119.22;39.83;;;;;;;;;;6247823;22;20011;-84
2023/01/15 07:09:52;;;;;;;105.15;36.75;;;;;;;;;;6244380;23;20415;-83
2023/01/15 07:12:17;;;;;;;109.88;35.78;;;;;;;;;;6246181;22;20011;-83
2023/01/15 07:14:43;;;;;;;133.65;43.22;;;;;;;;;;6246700;22;20001;-83
2023/01/15 07:17:08;;;;;;;121.30;42.28;;;;;;;;;;6243914;23;20076;-83
2023/01/15 07:19:34;;;;;;;129.60;45.75;;;;;;;;;;6243784;23;20003;-84
2023/01/15 07:21:59;;;;;;;181.52;43.72;;;;;;;;;;6243707;23;20007;-83
2023/01/15 07:24:25;;;;;;;176.18;39.97;;;;;;;;;;6243656;23;20423;-83
2023/01/15 07:26:50;;;;;;;124.57;38.53;;;;;;;;;;6245155;22;20412;-83
2023/01/15 07:29:16;;;;;;;142.65;38.38;;;;;;;;;;6244741;22;19996;-85
2023/01/15 07:31:41;;;;;;;120.93;40.78;;;;;;;;;;6244987;22;20004;-85
2023/01/15 07:34:07;;;;;;;155.10;48.10;;;;;;;;;;6218359;23;20011;-85
2023/01/15 07:36:32;;;;;;;114.03;38.38;;;;;;;;;;6193212;23;20007;-83
2023/01/15 07:38:58;;;;;;;166.82;36.92;;;;;;;;;;6243475;23;20095;-83
2023/01/15 07:49:50;;;;;;;85.55;30.80;;;;;;;;;;6222254;23;20019;-84
2023/01/15 07:52:20;;;;;;;76.88;28.67;;;;;;;;;;6222458;23;20004;-83
2023/01/15 07:54:46;;;;;;;79.78;28.33;;;;;;;;;;6218026;23;20016;-83
2023/01/15 07:57:12;;;;;;;79.80;29.75;;;;;;;;;;6243563;23;20046;-83
2023/01/15 07:59:38;;;;;;;73.05;27.08;;;;;;;;;;6243016;23;20005;-83
2023/01/15 08:02:03;;;;;;;75.47;30.92;;;;;;;;;;6242696;23;20004;-84
2023/01/15 08:04:29;;;;;;;73.00;29.35;;;;;;;;;;6243739;23;20036;-83
2023/01/15 08:06:54;;;;;;;76.40;31.98;;;;;;;;;;6245314;22;20013;-83
2023/01/15 08:09:19;;;;;;;69.95;28.45;;;;;;;;;;6244108;23;20477;-83
2023/01/15 08:17:13;;;;;;;79.00;30.60;;;;;;;;;;6243645;23;20011;-83
2023/01/15 08:19:38;;;;;;;81.20;33.50;;;;;;;;;;6243316;23;20391;-84
2023/01/15 08:22:04;;;;;;;72.63;29.50;;;;;;;;;;6243979;22;20332;-84
2023/01/15 08:24:29;;;;;;;64.22;26.88;;;;;;;;;;6244252;22;20000;-83
2023/01/15 08:26:54;;;;;;;86.13;33.80;;;;;;;;;;6243178;23;20092;-84
2023/01/15 08:29:20;;;;;;;77.25;31.27;;;;;;;;;;6243482;23;20027;-82
2023/01/15 08:31:46;;;;;;;61.70;26.58;;;;;;;;;;6216169;23;20008;-82
2023/01/15 08:34:11;;;;;;;62.90;26.13;;;;;;;;;;6245106;22;20004;-83
2023/01/15 08:36:37;;;;;;;65.50;26.73;;;;;;;;;;6250036;23;20056;-83
2023/01/15 08:39:02;;;;;;;65.20;26.75;;;;;;;;;;6247208;22;20152;-83
2023/01/15 08:41:28;;;;;;;68.75;27.08;;;;;;;;;;6195962;23;20020;-83
2023/01/15 08:43:54;;;;;;;68.60;27.65;;;;;;;;;;6223083;23;19996;-84
2023/01/15 08:46:19;;;;;;;71.03;28.48;;;;;;;;;;6250389;23;20004;-84
2023/01/15 08:48:45;;;;;;;69.68;28.83;;;;;;;;;;6225765;23;20011;-85
2023/01/15 08:51:10;;;;;;;75.30;28.60;;;;;;;;;;6195061;23;20402;-85
2023/01/15 08:53:36;;;;;;;88.28;34.50;;;;;;;;;;6219684;23;19996;-83
2023/01/15 08:56:01;;;;;;;71.18;29.48;;;;;;;;;;6245720;23;20000;-83
2023/01/15 08:58:28;;;;;;;74.72;29.08;;;;;;;;;;6245247;23;19996;-83
2023/01/15 09:00:54;;;;;;;67.65;26.52;;;;;;;;;;6245522;23;20351;-83
2023/01/15 09:03:19;;;;;;;71.07;26.65;;;;;;;;;;6218307;23;20000;-84
2023/01/15 09:05:45;;;;;;;73.22;28.75;;;;;;;;;;6167958;23;20043;-84
2023/01/15 09:08:10;;;;;;;67.95;26.70;;;;;;;;;;6217757;23;20001;-83
2023/01/15 09:10:36;;;;;;;77.45;29.00;;;;;;;;;;6245334;23;20005;-82
2023/01/15 09:13:01;;;;;;;74.68;27.95;;;;;;;;;;6218099;23;20004;-83
2023/01/15 09:15:31;;;;;;;65.70;25.80;;;;;;;;;;6241513;23;20331;-83
2023/01/15 09:17:57;;;;;;;76.63;26.63;;;;;;;;;;6217633;23;20000;-83
2023/01/15 09:20:22;;;;;;;66.53;26.00;;;;;;;;;;6245273;23;20324;-84
2023/01/15 09:22:48;;;;;;;71.45;28.40;;;;;;;;;;6218431;23;20000;-83
2023/01/15 09:25:15;;;;;;;83.53;32.13;;;;;;;;;;6222705;23;20032;-83
2023/01/15 09:27:40;;;;;;;79.38;29.05;;;;;;;;;;6227010;23;20396;-83
2023/01/15 09:30:07;;;;;;;92.72;34.47;;;;;;;;;;6228267;23;20088;-83
2023/01/15 09:32:32;;;;;;;93.32;34.40;;;;;;;;;;6250702;23;20004;-83
2023/01/15 09:34:58;;;;;;;89.60;33.85;;;;;;;;;;6248398;23;20015;-84
2023/01/15 09:37:23;;;;;;;93.72;36.25;;;;;;;;;;6221010;23;20419;-84
2023/01/15 09:39:48;;;;;;;101.80;38.38;;;;;;;;;;6247266;23;20083;-84
2023/01/15 09:42:27;;;;;;;109.47;41.50;;;;;;;;;;6220294;23;20000;-84
2023/01/15 09:44:59;;;;;;;100.38;39.78;;;;;;;;;;6220210;23;20416;-84
2023/01/15 09:47:32;;;;;;;113.03;39.90;;;;;;;;;;6247107;23;20400;-85
2023/01/15 09:50:28;;;;;;;100.85;38.80;;;;;;;;;;6195347;23;20008;-84
2023/01/15 09:53:18;;;;;;;97.35;36.25;;;;;;;;;;6220339;23;20004;-85
2023/01/15 09:55:50;;;;;;;97.43;37.05;;;;;;;;;;6220071;23;20466;-85
2023/01/15 09:58:17;;;;;;;89.65;35.10;;;;;;;;;;6194323;23;20066;-83
2023/01/15 10:00:45;;;;;;;89.20;35.22;;;;;;;;;;6169706;23;20019;-83
2023/01/15 10:03:23;;;;;;;100.13;35.17;;;;;;;;;;6194712;23;20053;-83
2023/01/15 10:05:51;;;;;;;102.57;36.83;;;;;;;;;;6247413;23;20439;-83
2023/01/15 10:08:29;;;;;;;90.20;35.25;;;;;;;;;;6220574;23;20000;-83
2023/01/15 10:12:33;;;;;;;95.60;35.33;;;;;;;;;;6245915;23;20019;-83
2023/01/15 10:14:10;;;;;;;103.18;39.70;;;;;;;;;;6203906;23;20083;-83
2023/01/15 10:16:36;;;;;;;96.32;37.67;;;;;;;;;;6192089;23;20004;-82
2023/01/15 10:19:01;;;;;;;85.28;35.38;;;;;;;;;;6194613;23;20342;-83
2023/01/15 10:21:41;;;;;;;81.93;33.72;;;;;;;;;;6193006;23;20006;-83
2023/01/15 10:24:25;;;;;;;89.17;35.40;;;;;;;;;;6217727;23;20000;-84
2023/01/15 10:26:54;;;;;;;89.50;36.03;;;;;;;;;;6244152;23;20000;-83
2023/01/15 10:29:25;;;;;;;75.47;33.30;;;;;;;;;;6193782;23;20127;-84
2023/01/15 10:31:53;;;;;;;65.10;29.13;;;;;;;;;;6218637;23;20027;-83
2023/01/15 10:34:53;;;;;;;68.13;29.23;;;;;;;;;;6218392;23;20004;-83
2023/01/15 10:37:41;;;;;;;76.93;33.40;;;;;;;;;;6210306;23;20039;-82
2023/01/15 10:40:29;;;;;;;66.13;29.35;;;;;;;;;;6256880;23;20004;-83
2023/01/15 10:43:30;;;;;;;57.78;25.02;;;;;;;;;;6263062;23;20496;-83
2023/01/15 10:45:57;;;;;;;57.58;25.88;;;;;;;;;;6241366;23;20074;-83
2023/01/15 10:48:25;;;;;;;63.63;26.70;;;;;;;;;;6219452;23;20004;-83
2023/01/15 10:50:51;;;;;;;64.75;28.08;;;;;;;;;;6245787;23;20351;-83
2023/01/15 10:53:19;;;;;;;64.10;28.20;;;;;;;;;;6194054;23;20005;-83
2023/01/15 10:56:16;;;;;;;62.80;27.83;;;;;;;;;;6247208;22;20304;-83
2023/01/15 10:58:46;;;;;;;70.43;29.17;;;;;;;;;;6203157;23;20375;-82
2023/01/15 11:01:14;;;;;;;64.50;27.00;;;;;;;;;;6220289;23;20028;-83
2023/01/15 11:03:42;;;;;;;68.43;28.30;;;;;;;;;;6221128;23;20004;-83
2023/01/15 11:06:12;;;;;;;70.00;29.23;;;;;;;;;;6219744;23;20015;-83
2023/01/15 11:08:37;;;;;;;;;;;;;;;;;;6244375;23;20031;-83
2023/01/15 11:20:36;;;;;;;;;;;;;;;;;;6219536;23;20478;-83
2023/01/15 11:23:12;;;;;;;59.50;26.42;;;;;;;;;;6245909;22;19958;-83
2023/01/15 11:25:38;;;;;;;66.15;27.73;;;;;;;;;;6220213;23;20014;-83
2023/01/15 11:28:05;;;;;;;66.72;28.98;;;;;;;;;;6219690;23;20000;-83
2023/01/15 11:30:38;;;;;;;61.20;27.75;;;;;;;;;;6220286;23;20004;-84
2023/01/15 11:33:05;;;;;;;59.50;26.73;;;;;;;;;;6244673;23;20046;-83
2023/01/15 11:35:32;;;;;;;58.78;27.27;;;;;;;;;;6219799;23;20036;-84
2023/01/15 11:38:12;;;;;;;69.78;29.10;;;;;;;;;;6218431;23;20084;-83
2023/01/15 11:40:37;;;;;;;64.82;28.65;;;;;;;;;;6243810;23;20011;-83
2023/01/15 11:51:32;;;;;;;66.53;29.45;;;;;;;;;;6222006;23;20142;-83
2023/01/15 11:54:08;;;;;;;73.30;30.80;;;;;;;;;;6218446;23;20004;-83
2023/01/15 11:56:33;;;;;;;68.28;30.13;;;;;;;;;;6243344;23;20011;-83
2023/01/15 11:59:03;;;;;;;71.55;30.67;;;;;;;;;;6220715;23;20110;-83
2023/01/15 12:01:36;;;;;;;75.07;31.47;;;;;;;;;;6218722;23;20000;-83
2023/01/15 12:04:40;;;;;;;71.63;31.23;;;;;;;;;;6221954;23;20251;-83
2023/01/15 12:07:10;;;;;;;68.55;30.55;;;;;;;;;;6244410;23;20004;-82
2023/01/15 12:10:00;;;;;;;72.30;31.45;;;;;;;;;;6243181;23;20000;-83
2023/01/15 12:13:00;;;;;;;76.13;31.05;;;;;;;;;;6244824;23;20079;-84
2023/01/15 12:15:32;;;;;;;71.60;30.48;;;;;;;;;;6242815;23;20015;-83
2023/01/15 12:18:19;;;;;;;70.63;30.90;;;;;;;;;;6243691;23;20028;-84
2023/01/15 12:20:51;;;;;;;75.97;31.33;;;;;;;;;;6241331;23;20031;-83
2023/01/15 12:23:29;;;;;;;69.43;30.05;;;;;;;;;;6242863;23;20004;-83
2023/01/15 12:26:39;;;;;;;56.63;26.65;;;;;;;;;;6244712;23;20027;-82
2023/01/15 12:29:34;;;;;;;57.65;26.00;;;;;;;;;;6122238;23;20021;-83
2023/01/15 12:32:10;;;;;;;52.67;24.23;;;;;;;;;;6242611;23;20011;-82
2023/01/15 12:34:49;;;;;;;50.70;25.60;;;;;;;;;;6194055;23;20015;-83
2023/01/15 12:37:19;;;;;;;47.42;23.48;;;;;;;;;;6218887;23;20004;-83
2023/01/15 12:40:13;;;;;;;54.92;25.52;;;;;;;;;;6245324;22;20012;-83
2023/01/15 12:45:26;;;;;;;49.22;24.25;;;;;;;;;;6222749;23;20149;-82
2023/01/15 12:47:56;;;;;;;47.25;24.15;;;;;;;;;;6193957;23;20386;-82
2023/01/15 12:50:44;;;;;;;51.85;24.73;;;;;;;;;;6218186;23;20018;-82
2023/01/15 12:53:23;;;;;;;50.90;23.95;;;;;;;;;;6248177;23;20007;-83
2023/01/15 12:56:13;;;;;;;62.17;28.65;;;;;;;;;;6224511;23;20004;-83
2023/01/15 12:59:12;;;;;;;55.10;25.00;;;;;;;;;;6178669;23;20005;-83
2023/01/15 13:02:10;;;;;;;54.70;26.05;;;;;;;;;;6223417;23;20355;-82
2023/01/15 13:04:41;;;;;;;49.08;25.77;;;;;;;;;;6223818;23;20379;-82
2023/01/15 13:07:23;;;;;;;47.55;23.33;;;;;;;;;;6244694;23;20015;-82
2023/01/15 13:09:57;;;;;;;44.30;21.23;;;;;;;;;;6193815;23;20362;-84
2023/01/15 13:12:23;;;;;;;44.90;23.88;;;;;;;;;;6168474;23;20008;-82
2023/01/15 13:14:49;;;;;;;50.72;24.25;;;;;;;;;;6218148;23;20004;-83
2023/01/15 13:17:43;;;;;;;46.47;22.95;;;;;;;;;;6192885;23;20018;-83
2023/01/15 13:20:08;;;;;;;52.00;25.25;;;;;;;;;;6193788;23;20458;-83
2023/01/15 13:22:39;;;;;;;53.72;27.05;;;;;;;;;;6241312;23;20004;-83
2023/01/15 13:25:04;;;;;;;;;;;;;;;;;;6193280;23;20004;-82
2023/01/15 13:27:39;;;;;;;58.35;27.60;;;;;;;;;;6243963;23;19915;-83
2023/01/15 13:30:15;;;;;;;62.45;28.17;;;;;;;;;;6243955;23;20000;-83
2023/01/15 13:32:47;;;;;;;56.83;26.75;;;;;;;;;;6243497;23;20004;-84
2023/01/15 13:35:24;;;;;;;59.95;28.02;;;;;;;;;;6193247;23;20050;-83
2023/01/15 13:37:52;;;;;;;57.75;28.00;;;;;;;;;;6244229;23;20416;-82
2023/01/15 13:40:40;;;;;;;61.47;28.10;;;;;;;;;;6212992;23;20439;-83
2023/01/15 13:43:06;;;;;;;58.22;26.80;;;;;;;;;;6217116;23;20008;-84
2023/01/15 13:45:37;;;;;;;60.72;28.20;;;;;;;;;;6217240;23;20008;-84
2023/01/15 13:48:16;;;;;;;59.40;27.20;;;;;;;;;;6218048;23;20007;-82
2023/01/15 13:51:03;;;;;;;65.68;29.17;;;;;;;;;;6242871;23;20011;-84
2023/01/15 13:53:37;;;;;;;68.75;29.92;;;;;;;;;;6242994;23;20079;-84
2023/01/15 13:56:08;;;;;;;71.38;32.28;;;;;;;;;;6194000;23;20008;-83
2023/01/15 13:58:53;;;;;;;71.03;29.70;;;;;;;;;;6218471;23;20058;-83
2023/01/15 14:01:19;;;;;;;86.10;40.58;;;;;;;;;;6244081;22;20062;-84
2023/01/15 14:04:09;;;;;;;73.35;32.60;;;;;;;;;;6243761;22;20000;-84
2023/01/15 14:06:45;;;;;;;73.75;33.90;;;;;;;;;;6244240;22;20015;-84
2023/01/15 14:09:16;;;;;;;74.55;33.45;;;;;;;;;;6244226;22;20066;-84
2023/01/15 14:11:53;;;;;;;75.95;34.42;;;;;;;;;;6243666;23;20019;-84
2023/01/15 14:14:31;;;;;;;72.97;32.35;;;;;;;;;;6244240;23;20010;-82
2023/01/15 14:17:33;;;;;;;66.80;30.13;;;;;;;;;;6243968;23;20074;-83
2023/01/15 14:20:12;;;;;;;84.78;36.38;;;;;;;;;;6244324;23;20008;-83
2023/01/15 14:23:07;;;;;;;69.82;31.10;;;;;;;;;;6244977;23;19996;-84
2023/01/15 14:25:41;;;;;;;92.95;41.13;;;;;;;;;;6242952;23;20127;-84
2023/01/15 14:28:23;;;;;;;73.32;33.58;;;;;;;;;;6246599;22;20131;-84
2023/01/15 14:30:57;;;;;;;75.50;34.75;;;;;;;;;;6246009;23;20044;-84
2023/01/15 14:34:00;;;;;;;67.05;32.03;;;;;;;;;;6247644;23;20012;-83
2023/01/15 14:36:27;;;;;;;68.10;31.70;;;;;;;;;;6251937;23;20030;-83
2023/01/15 14:38:56;;;;;;;69.93;30.95;;;;;;;;;;6222135;23;20138;-84
2023/01/15 14:41:28;;;;;;;75.45;32.03;;;;;;;;;;6194493;23;20421;-85
2023/01/15 14:43:54;;;;;;;67.40;29.40;;;;;;;;;;6219456;23;20000;-85
2023/01/15 14:46:33;;;;;;;76.07;34.03;;;;;;;;;;6243897;23;20081;-84
2023/01/15 14:48:59;;;;;;;73.28;32.45;;;;;;;;;;6219349;23;20500;-84
2023/01/15 14:51:28;;;;;;;77.07;34.88;;;;;;;;;;6218963;23;20644;-83
2023/01/15 14:53:58;;;;;;;67.75;31.10;;;;;;;;;;6244373;23;20004;-84
2023/01/15 14:56:27;;;;;;;71.53;32.22;;;;;;;;;;6244332;23;20083;-84
2023/01/15 14:59:09;;;;;;;80.57;35.72;;;;;;;;;;6263813;22;20024;-84
2023/01/15 15:01:40;;;;;;;77.45;34.63;;;;;;;;;;6195373;23;19996;-84
2023/01/15 15:04:22;;;;;;;75.72;35.15;;;;;;;;;;6246063;23;20004;-85
2023/01/15 15:06:53;;;;;;;79.47;36.83;;;;;;;;;;6245505;22;20062;-85
2023/01/15 15:09:25;;;;;;;77.40;33.72;;;;;;;;;;6219023;23;20004;-84
2023/01/15 15:14:36;;;;;;;78.38;33.95;;;;;;;;;;6243815;23;20034;-83
2023/01/15 15:17:03;;;;;;;71.00;32.95;;;;;;;;;;6243934;23;19999;-83
2023/01/15 15:19:38;;;;;;;72.93;33.15;;;;;;;;;;6219138;23;20009;-83
2023/01/15 15:22:05;;;;;;;83.90;37.67;;;;;;;;;;6218916;23;20004;-83
2023/01/15 15:24:33;;;;;;;80.22;36.05;;;;;;;;;;6218610;23;20090;-84
2023/01/15 15:27:28;;;;;;;81.45;36.00;;;;;;;;;;6218803;23;20416;-83